Terminal Aerodrome Forecast
Issued by NWS

Home | Current Version | Previous Version | Graphics & Text | Print | Product List | Glossary On
Versions: 1 2 3 4 5 6 7 8 9 10 11 12 13 14 15
780
FTUS43 KBIS 241700 AAB
TAFJMS
TAF AMD
KJMS 241700Z 2417/2512 15015KT P6SM SCT090
      TEMPO 2417/2418 BKN030=

USA.gov is the U.S. government's official web portal to all federal, state and local government web resources and services.